Time;durP1;ratioP1;P1;durP2;ratioP2;P2;SDS_P1;SDS_P2;PMS_P1;PMS_P2;Temp;Humidity;BMP_temperature;BMP_pressure;BME280_temperature;BME280_humidity;BME280_pressure;Samples;Min_cycle;Max_cycle;Signal;HPM_P1;HPM_P2
2023/07/01 00:01:07;;;;;;;6.78;2.22;;;18.20;83.70;;;;;;5066910;28;20403;-70
2023/07/01 00:03:33;;;;;;;7.90;2.10;;;18.00;46.10;;;;;;5066994;28;20435;-70
2023/07/01 00:05:59;;;;;;;7.30;2.23;;;17.90;90.50;;;;;;5064575;28;20895;-70
2023/07/01 00:08:25;;;;;;;6.50;2.50;;;17.70;99.90;;;;;;5066570;28;20445;-70
2023/07/01 00:10:51;;;;;;;7.20;2.10;;;17.60;99.90;;;;;;5067346;28;20404;-71
2023/07/01 00:13:16;;;;;;;6.30;1.98;;;17.50;99.90;;;;;;5066956;28;20440;-70
2023/07/01 00:15:42;;;;;;;7.00;2.43;;;17.60;1.00;;;;;;5065852;28;20487;-71
2023/07/01 00:18:07;;;;;;;7.20;2.20;;;17.50;1.00;;;;;;5064526;28;20504;-70
2023/07/01 00:20:33;;;;;;;5.93;1.80;;;17.50;1.00;;;;;;5065295;28;20441;-70
2023/07/01 00:22:58;;;;;;;8.70;2.60;;;17.60;1.00;;;;;;5067000;28;20403;-70
2023/07/01 00:25:24;;;;;;;6.20;2.00;;;17.50;1.00;;;;;;5066205;28;20411;-70
2023/07/01 00:27:50;;;;;;;7.27;2.30;;;17.50;99.90;;;;;;5067294;28;20442;-70
2023/07/01 00:30:15;;;;;;;6.00;2.20;;;17.40;1.00;;;;;;5068377;28;20402;-70
2023/07/01 00:32:41;;;;;;;8.55;2.50;;;17.50;1.00;;;;;;5066287;28;20396;-70
2023/07/01 00:35:07;;;;;;;5.60;1.77;;;17.40;1.00;;;;;;5067956;28;20408;-70
2023/07/01 00:37:32;;;;;;;6.60;2.03;;;17.30;1.00;;;;;;5067677;28;20890;-70
2023/07/01 00:39:58;;;;;;;7.90;2.20;;;17.20;1.00;;;;;;5066581;28;20420;-70
2023/07/01 00:42:24;;;;;;;8.50;2.10;;;17.20;1.00;;;;;;5067006;28;20419;-70
2023/07/01 00:44:49;;;;;;;7.13;2.43;;;17.20;1.00;;;;;;5066078;28;20420;-70
2023/07/01 00:47:15;;;;;;;9.93;1.80;;;17.00;1.00;;;;;;5065047;28;20789;-71
2023/07/01 00:49:41;;;;;;;6.13;1.95;;;17.00;1.00;;;;;;5065345;28;20404;-70
2023/07/01 00:52:07;;;;;;;7.40;2.00;;;16.90;1.00;;;;;;5066516;28;20412;-71
2023/07/01 00:54:34;;;;;;;5.97;2.20;;;16.90;1.00;;;;;;5065940;28;20406;-70
2023/07/01 00:57:03;;;;;;;6.53;2.00;;;16.90;1.00;;;;;;5065141;28;20404;-70
2023/07/01 00:59:32;;;;;;;5.85;1.77;;;16.90;1.00;;;;;;5064611;28;20923;-70
2023/07/01 01:02:04;;;;;;;6.70;2.20;;;16.90;1.00;;;;;;5065462;28;20925;-70
2023/07/01 01:04:35;;;;;;;6.50;2.00;;;16.80;1.00;;;;;;5064417;28;20414;-70
2023/07/01 01:07:04;;;;;;;6.95;2.40;;;16.80;1.00;;;;;;5065502;28;20661;-70
2023/07/01 01:09:48;;;;;;;5.67;2.00;;;16.70;3.90;;;;;;5066615;28;20460;-70
2023/07/01 01:12:14;;;;;;;5.93;1.98;;;16.70;46.90;;;;;;5067584;28;20885;-70
2023/07/01 01:14:42;;;;;;;6.27;1.90;;;16.60;99.90;;;;;;5069235;28;20422;-70
2023/07/01 01:17:12;;;;;;;6.18;2.15;;;16.50;99.90;;;;;;5068779;28;20403;-70
2023/07/01 01:19:42;;;;;;;6.10;2.10;;;16.40;99.90;;;;;;5069215;28;20408;-70
2023/07/01 01:22:33;;;;;;;6.35;2.13;;;16.40;99.90;;;;;;5068902;28;20823;-70
2023/07/01 01:25:05;;;;;;;6.18;2.30;;;16.20;99.90;;;;;;5067948;28;20411;-70
2023/07/01 01:27:41;;;;;;;5.90;2.05;;;16.20;99.90;;;;;;5068292;28;20522;-70
2023/07/01 01:30:07;;;;;;;7.03;2.10;;;16.20;99.90;;;;;;5069333;28;20729;-70
2023/07/01 01:32:36;;;;;;;6.47;2.20;;;16.10;99.90;;;;;;5069241;28;20478;-70
2023/07/01 01:35:02;;;;;;;6.50;2.08;;;16.10;99.90;;;;;;5069959;28;20400;-70
2023/07/01 01:37:49;;;;;;;6.72;2.40;;;16.10;99.90;;;;;;5068078;28;20766;-71
2023/07/01 01:40:33;;;;;;;6.50;2.25;;;16.00;99.90;;;;;;5068442;28;20411;-70
2023/07/01 01:43:12;;;;;;;7.10;2.40;;;16.00;99.90;;;;;;5068759;28;20411;-70
2023/07/01 01:45:38;;;;;;;6.55;2.30;;;15.90;99.90;;;;;;5067939;28;20511;-70
2023/07/01 01:48:05;;;;;;;6.18;2.17;;;15.90;99.90;;;;;;5066362;28;20479;-70
2023/07/01 01:50:33;;;;;;;7.80;1.85;;;15.80;99.90;;;;;;5069202;28;20419;-70
2023/07/01 01:53:01;;;;;;;8.80;2.25;;;15.70;1.00;;;;;;5068798;28;20945;-70
2023/07/01 01:55:29;;;;;;;7.68;2.10;;;15.70;1.00;;;;;;5069070;28;20460;-70
2023/07/01 01:57:58;;;;;;;7.53;2.10;;;15.60;1.00;;;;;;5069194;28;20939;-70
2023/07/01 02:00:24;;;;;;;6.32;2.28;;;15.60;1.00;;;;;;5068838;28;20414;-70
2023/07/01 02:02:49;;;;;;;5.97;2.08;;;15.50;1.00;;;;;;5068576;28;20450;-70
2023/07/01 02:05:15;;;;;;;7.60;2.00;;;15.60;1.00;;;;;;5070249;28;20506;-70
2023/07/01 02:07:40;;;;;;;6.77;2.37;;;15.50;1.00;;;;;;5069291;28;20391;-70
2023/07/01 02:10:07;;;;;;;6.60;2.20;;;15.50;1.00;;;;;;5068029;28;20392;-70
2023/07/01 02:12:32;;;;;;;6.97;2.83;;;15.50;1.00;;;;;;5068435;28;20891;-70
2023/07/01 02:14:58;;;;;;;7.43;2.40;;;15.50;1.00;;;;;;5067377;28;20412;-70
2023/07/01 02:17:23;;;;;;;8.60;2.40;;;15.50;1.00;;;;;;5068681;28;20530;-70
2023/07/01 02:19:49;;;;;;;6.17;2.23;;;15.50;1.00;;;;;;5068193;28;20773;-70
2023/07/01 02:22:14;;;;;;;5.90;2.20;;;15.40;1.00;;;;;;5067055;28;20399;-70
2023/07/01 02:24:40;;;;;;;7.30;2.50;;;15.50;1.00;;;;;;5068273;28;20485;-70
2023/07/01 02:27:06;;;;;;;6.60;2.50;;;15.40;1.00;;;;;;5068274;28;20906;-70
2023/07/01 02:29:31;;;;;;;7.00;2.28;;;15.40;1.00;;;;;;5068145;28;20396;-71
2023/07/01 02:31:57;;;;;;;6.45;2.50;;;15.30;1.00;;;;;;5068368;28;20399;-70
2023/07/01 02:34:27;;;;;;;7.10;2.10;;;15.30;1.00;;;;;;5068113;28;20403;-70
2023/07/01 02:36:55;;;;;;;6.90;2.30;;;15.30;1.00;;;;;;5066406;28;20407;-70
2023/07/01 02:39:21;;;;;;;6.22;2.10;;;15.30;1.00;;;;;;5068251;28;20391;-70
2023/07/01 02:41:47;;;;;;;7.23;2.80;;;15.30;1.00;;;;;;5068856;28;20410;-70
2023/07/01 02:44:12;;;;;;;6.45;2.20;;;15.30;1.00;;;;;;5067532;28;20486;-71
2023/07/01 02:46:38;;;;;;;7.10;2.50;;;15.40;1.00;;;;;;5067533;28;20485;-71
2023/07/01 02:49:04;;;;;;;6.67;2.30;;;15.20;1.00;;;;;;5067771;28;20776;-70
2023/07/01 02:51:29;;;;;;;8.23;2.53;;;15.20;1.00;;;;;;5067161;28;20412;-71
2023/07/01 02:53:55;;;;;;;7.30;2.40;;;15.10;1.00;;;;;;5068584;28;20818;-70
2023/07/01 02:56:21;;;;;;;7.32;2.50;;;15.10;1.00;;;;;;5067149;28;20475;-71
2023/07/01 02:58:46;;;;;;;6.90;2.30;;;15.10;1.00;;;;;;5067685;28;20760;-71
2023/07/01 03:01:13;;;;;;;8.00;2.50;;;15.10;1.00;;;;;;5068004;28;20408;-71
2023/07/01 03:03:39;;;;;;;7.72;2.42;;;15.10;1.00;;;;;;5066349;28;20407;-71
2023/07/01 03:06:05;;;;;;;8.63;2.83;;;15.10;1.00;;;;;;5067998;28;20519;-71
2023/07/01 03:08:30;;;;;;;6.13;2.22;;;15.10;1.00;;;;;;5068308;28;20406;-71
2023/07/01 03:10:56;;;;;;;6.70;2.60;;;15.00;1.00;;;;;;5066477;28;20548;-70
2023/07/01 03:13:21;;;;;;;7.03;2.60;;;15.00;1.00;;;;;;5066750;28;20416;-71
2023/07/01 03:15:47;;;;;;;9.53;2.50;;;15.00;1.00;;;;;;5067992;28;20392;-70
2023/07/01 03:18:12;;;;;;;6.83;2.43;;;15.00;1.00;;;;;;5067592;28;20902;-70
2023/07/01 03:20:38;;;;;;;7.43;2.65;;;15.00;1.00;;;;;;5067632;28;20391;-71
2023/07/01 03:23:03;;;;;;;7.50;2.50;;;15.00;1.00;;;;;;5067423;28;20396;-70
2023/07/01 03:25:29;;;;;;;11.43;2.67;;;15.00;1.00;;;;;;5067992;28;20763;-71
2023/07/01 03:27:55;;;;;;;7.13;2.50;;;15.00;1.00;;;;;;5067577;28;20446;-70
2023/07/01 03:30:27;;;;;;;7.60;2.97;;;15.00;1.00;;;;;;5064761;28;20392;-70
2023/07/01 03:32:53;;;;;;;6.55;2.58;;;15.00;1.00;;;;;;5065559;28;20453;-70
2023/07/01 03:35:18;;;;;;;6.90;2.80;;;15.10;1.00;;;;;;5069157;28;20396;-70
2023/07/01 03:37:44;;;;;;;7.07;2.53;;;15.10;1.00;;;;;;5068716;28;20901;-70
2023/07/01 03:40:10;;;;;;;8.45;3.30;;;15.10;1.00;;;;;;5067902;28;20522;-70
2023/07/01 03:42:40;;;;;;;7.03;2.72;;;15.10;1.00;;;;;;5067575;28;20471;-70
2023/07/01 03:45:07;;;;;;;7.30;2.60;;;15.10;1.00;;;;;;5066994;28;20423;-70
2023/07/01 03:47:43;;;;;;;6.60;2.67;;;15.00;1.00;;;;;;5066836;28;20404;-70
2023/07/01 03:50:09;;;;;;;7.53;3.38;;;14.90;1.00;;;;;;5067416;28;20444;-70
2023/07/01 03:52:38;;;;;;;8.70;3.25;;;15.00;1.00;;;;;;5066418;28;20475;-70
2023/07/01 03:55:05;;;;;;;6.80;2.83;;;15.00;1.00;;;;;;5067171;28;20494;-70
2023/07/01 03:57:32;;;;;;;7.63;3.13;;;14.90;1.00;;;;;;5065573;28;20821;-70
2023/07/01 03:59:57;;;;;;;7.35;3.05;;;15.00;1.00;;;;;;5065800;28;20545;-70
2023/07/01 04:02:23;;;;;;;10.70;3.08;;;15.00;1.00;;;;;;5066429;28;20762;-70
2023/07/01 04:04:49;;;;;;;8.80;3.33;;;15.10;1.00;;;;;;5066061;28;20486;-70
2023/07/01 04:07:15;;;;;;;6.90;2.67;;;15.10;1.00;;;;;;5066450;28;20483;-69
2023/07/01 04:09:41;;;;;;;7.68;3.13;;;15.10;1.00;;;;;;5066444;28;20403;-70
2023/07/01 04:12:07;;;;;;;7.90;3.10;;;15.10;1.00;;;;;;5066087;28;20399;-70
2023/07/01 04:14:33;;;;;;;8.07;2.92;;;15.20;1.00;;;;;;5066386;28;20412;-71
2023/07/01 04:16:58;;;;;;;6.17;2.50;;;15.10;1.00;;;;;;5066352;28;20430;-70
2023/07/01 04:19:24;;;;;;;6.60;2.30;;;15.20;1.00;;;;;;5066300;28;20394;-70
2023/07/01 04:21:49;;;;;;;6.88;2.55;;;15.20;1.00;;;;;;5065990;28;20404;-70
2023/07/01 04:24:15;;;;;;;6.40;2.70;;;15.20;1.00;;;;;;5067279;28;20487;-70
2023/07/01 04:26:44;;;;;;;7.00;3.10;;;15.30;1.00;;;;;;5065250;28;20423;-70
2023/07/01 04:29:10;;;;;;;7.47;2.80;;;15.30;1.00;;;;;;5065473;28;20774;-70
2023/07/01 04:31:35;;;;;;;8.32;3.45;;;15.40;1.00;;;;;;5066300;28;20455;-70
2023/07/01 04:34:01;;;;;;;9.33;3.30;;;15.50;1.00;;;;;;5065852;28;20891;-71
2023/07/01 04:36:26;;;;;;;7.20;2.70;;;15.60;1.00;;;;;;5066410;28;20487;-71
2023/07/01 04:38:52;;;;;;;8.30;2.83;;;15.70;1.00;;;;;;5065504;28;20927;-71
2023/07/01 04:41:18;;;;;;;7.43;2.90;;;15.70;1.00;;;;;;5065145;28;20396;-71
2023/07/01 04:43:43;;;;;;;10.05;3.13;;;15.80;1.00;;;;;;5066501;28;20484;-71
2023/07/01 04:46:09;;;;;;;8.07;3.20;;;15.80;1.00;;;;;;5067152;28;21042;-71
2023/07/01 04:48:34;;;;;;;6.67;2.67;;;16.00;1.00;;;;;;5070530;28;20422;-71
2023/07/01 04:51:00;;;;;;;7.27;2.70;;;16.10;1.00;;;;;;5070731;28;20399;-71
2023/07/01 04:53:25;;;;;;;9.63;3.33;;;16.20;1.00;;;;;;5069997;28;20403;-70
2023/07/01 04:55:51;;;;;;;7.60;3.20;;;16.30;1.00;;;;;;5070323;28;20395;-71
2023/07/01 04:58:17;;;;;;;6.60;2.90;;;16.50;1.00;;;;;;5071894;28;20396;-70
2023/07/01 05:00:47;;;;;;;8.30;2.53;;;16.80;1.00;;;;;;5070434;28;20396;-70
2023/07/01 05:03:13;;;;;;;6.85;2.70;;;17.20;1.00;;;;;;5071418;28;20433;-70
2023/07/01 05:05:38;;;;;;;8.07;2.93;;;17.60;1.00;;;;;;5070344;28;20450;-70
2023/07/01 05:08:04;;;;;;;7.47;2.43;;;18.30;1.00;;;;;;5072818;28;20399;-71
2023/07/01 05:10:29;;;;;;;12.13;2.50;;;18.80;1.00;;;;;;5069952;28;20415;-71
2023/07/01 05:12:56;;;;;;;7.78;2.92;;;19.20;99.90;;;;;;5071994;28;20423;-71
2023/07/01 05:15:22;;;;;;;8.68;2.55;;;19.30;99.90;;;;;;5072217;28;20406;-71
2023/07/01 05:17:47;;;;;;;6.17;2.00;;;19.80;99.90;;;;;;5071091;28;20507;-70
2023/07/01 05:20:13;;;;;;;6.57;2.40;;;20.40;99.90;;;;;;5071551;28;21028;-71
2023/07/01 05:22:38;;;;;;;6.83;2.10;;;21.10;1.00;;;;;;5068815;28;20414;-73
2023/07/01 05:25:04;;;;;;;7.57;2.30;;;21.40;99.90;;;;;;5064118;28;20487;-76
2023/07/01 05:27:30;;;;;;;6.40;1.90;;;21.50;99.90;;;;;;5068641;28;20532;-78
2023/07/01 05:29:57;;;;;;;6.22;2.33;;;22.10;1.00;;;;;;5070668;28;20416;-78
2023/07/01 05:32:23;;;;;;;5.90;2.10;;;22.10;1.00;;;;;;5070486;28;20536;-78
2023/07/01 05:34:48;;;;;;;7.80;2.22;;;22.00;1.00;;;;;;5072096;28;20442;-78
2023/07/01 05:37:14;;;;;;;7.55;1.75;;;22.00;1.00;;;;;;5070901;28;20469;-78
2023/07/01 05:39:40;;;;;;;7.18;2.40;;;22.00;1.00;;;;;;5069548;28;20715;-78
2023/07/01 05:42:05;;;;;;;7.50;1.90;;;22.20;1.00;;;;;;5071234;28;20485;-78
2023/07/01 05:44:31;;;;;;;7.70;2.00;;;22.00;1.00;;;;;;5070793;28;20807;-77
2023/07/01 05:46:56;;;;;;;6.63;2.10;;;22.20;1.00;;;;;;5072556;28;20981;-78
2023/07/01 05:49:22;;;;;;;6.72;2.20;;;22.40;1.00;;;;;;5070213;28;20411;-78
2023/07/01 05:51:48;;;;;;;6.95;2.70;;;22.50;1.00;;;;;;5068183;28;20408;-78
2023/07/01 05:54:14;;;;;;;6.65;2.30;;;22.30;1.00;;;;;;5069726;28;20732;-78
2023/07/01 05:56:39;;;;;;;6.03;1.73;;;23.10;1.00;;;;;;5071305;28;20798;-78
2023/07/01 05:59:05;;;;;;;5.97;2.00;;;23.80;1.00;;;;;;5071043;28;20478;-78
2023/07/01 06:01:30;;;;;;;7.03;2.10;;;24.30;99.90;;;;;;5068423;28;20488;-78
2023/07/01 06:03:56;;;;;;;7.37;2.10;;;24.70;99.90;;;;;;5069683;28;20485;-78
2023/07/01 06:06:22;;;;;;;5.93;2.00;;;25.00;99.90;;;;;;5065744;28;20442;-78
2023/07/01 06:08:48;;;;;;;7.97;2.40;;;25.10;99.90;;;;;;5071162;28;20396;-78
2023/07/01 06:11:14;;;;;;;11.02;2.47;;;25.80;99.90;;;;;;5069677;28;20437;-78
2023/07/01 06:13:48;;;;;;;6.28;2.00;;;26.00;99.90;;;;;;5069609;28;20495;-77
2023/07/01 06:16:15;;;;;;;6.00;1.60;;;26.10;99.90;;;;;;5062598;28;20519;-78
2023/07/01 06:18:41;;;;;;;6.47;1.63;;;26.60;99.90;;;;;;5087898;28;20386;-78
2023/07/01 06:21:08;;;;;;;7.90;1.77;;;26.90;99.90;;;;;;5074647;28;20451;-78
2023/07/01 06:23:34;;;;;;;6.40;1.85;;;26.60;99.90;;;;;;5063553;28;20430;-78
2023/07/01 06:26:00;;;;;;;6.25;1.73;;;26.60;99.90;;;;;;5073461;28;20525;-78
2023/07/01 06:28:26;;;;;;;6.93;1.88;;;26.40;99.90;;;;;;5074585;28;20930;-78
2023/07/01 06:30:52;;;;;;;6.78;1.60;;;26.30;99.90;;;;;;5074935;28;20424;-78
2023/07/01 06:33:18;;;;;;;7.88;1.70;;;26.20;99.90;;;;;;5088063;28;20383;-78
2023/07/01 06:35:43;;;;;;;6.60;2.25;;;26.30;99.90;;;;;;5075864;28;20977;-78
2023/07/01 06:38:09;;;;;;;6.10;1.60;;;26.60;99.90;;;;;;5074289;28;20420;-79
2023/07/01 06:40:36;;;;;;;9.05;2.03;;;26.30;99.90;;;;;;5095828;28;20409;-78
2023/07/01 06:43:06;;;;;;;6.43;1.70;;;26.00;99.90;;;;;;5094794;28;20399;-79
2023/07/01 06:45:32;;;;;;;6.53;1.67;;;26.30;99.90;;;;;;5081461;28;20442;-80
2023/07/01 06:47:58;;;;;;;7.22;2.00;;;27.00;99.90;;;;;;5091784;28;20399;-79
2023/07/01 06:50:24;;;;;;;11.07;1.80;;;26.50;99.90;;;;;;5081121;28;20448;-78
2023/07/01 06:52:50;;;;;;;8.80;2.20;;;26.50;99.90;;;;;;5082637;28;20380;-78
2023/07/01 06:55:15;;;;;;;5.70;1.67;;;26.90;99.90;;;;;;5084998;28;20411;-77
2023/07/01 06:57:42;;;;;;;7.00;1.73;;;26.50;99.90;;;;;;5091668;28;20383;-78
2023/07/01 07:00:12;;;;;;;6.03;1.80;;;26.80;99.90;;;;;;5090505;28;20423;-78
2023/07/01 07:02:39;;;;;;;5.90;1.75;;;26.90;99.90;;;;;;5083340;28;20396;-77
2023/07/01 07:05:08;;;;;;;8.77;2.17;;;27.10;99.90;;;;;;5083001;28;20445;-77
2023/07/01 07:07:34;;;;;;;6.20;2.00;;;27.60;99.90;;;;;;5079839;28;20425;-77
2023/07/01 07:09:59;;;;;;;6.10;1.60;;;26.80;99.90;;;;;;5078263;28;20395;-76
2023/07/01 07:12:25;;;;;;;6.60;1.70;;;26.70;99.90;;;;;;5075025;28;20413;-76
2023/07/01 07:14:51;;;;;;;7.30;1.73;;;26.80;99.90;;;;;;5074711;28;20434;-76
2023/07/01 07:17:16;;;;;;;6.00;1.60;;;27.20;99.90;;;;;;5067664;28;20407;-76
2023/07/01 07:19:45;;;;;;;6.10;1.40;;;27.50;99.90;;;;;;5063765;28;20434;-76
2023/07/01 07:22:10;;;;;;;5.90;1.30;;;27.50;99.90;;;;;;5086533;28;20401;-76
2023/07/01 07:24:36;;;;;;;6.75;1.60;;;26.90;99.90;;;;;;5091217;28;20428;-77
2023/07/01 07:27:02;;;;;;;5.50;1.50;;;27.20;99.90;;;;;;5073329;28;20427;-74
2023/07/01 07:29:29;;;;;;;5.75;1.50;;;27.50;99.90;;;;;;5069910;28;20471;-77
2023/07/01 07:31:55;;;;;;;6.00;1.60;;;27.20;99.90;;;;;;5077234;28;20792;-71
2023/07/01 07:34:22;;;;;;;5.85;1.30;;;26.40;99.90;;;;;;5066612;28;20395;-68
2023/07/01 07:36:48;;;;;;;6.50;1.60;;;26.30;99.90;;;;;;5082979;28;20405;-71
2023/07/01 07:39:14;;;;;;;6.60;1.23;;;26.40;99.90;;;;;;5074909;28;20424;-71
2023/07/01 07:41:41;;;;;;;5.47;1.50;;;27.00;99.90;;;;;;5051071;28;20829;-72
2023/07/01 07:44:07;;;;;;;5.65;1.60;;;27.20;99.90;;;;;;5074536;28;20406;-71
2023/07/01 07:46:42;;;;;;;5.90;1.63;;;27.50;99.90;;;;;;5069739;28;20431;-71
2023/07/01 07:49:07;;;;;;;5.60;1.80;;;27.30;99.90;;;;;;5070312;28;20398;-71
2023/07/01 07:51:33;;;;;;;7.40;1.40;;;27.30;99.90;;;;;;5069458;28;20400;-71
2023/07/01 07:54:00;;;;;;;9.77;1.80;;;27.30;99.90;;;;;;5070093;28;20384;-71
2023/07/01 07:56:26;;;;;;;5.40;1.60;;;27.20;99.90;;;;;;5067795;28;20918;-71
2023/07/01 07:58:54;;;;;;;11.23;1.65;;;26.80;99.90;;;;;;5068426;28;20388;-70
2023/07/01 08:01:20;;;;;;;6.20;1.77;;;26.20;99.90;;;;;;5070346;28;20422;-71
2023/07/01 08:03:45;;;;;;;5.60;1.50;;;26.00;99.90;;;;;;5071083;28;20932;-71
2023/07/01 08:06:13;;;;;;;5.50;1.40;;;26.00;99.90;;;;;;5069933;28;20426;-71
2023/07/01 08:08:39;;;;;;;6.53;1.60;;;26.40;99.90;;;;;;5066950;28;20974;-72
2023/07/01 08:11:05;;;;;;;7.10;1.70;;;27.30;99.90;;;;;;5064947;28;20471;-73
2023/07/01 08:13:30;;;;;;;7.03;1.97;;;27.40;99.90;;;;;;5066048;28;20446;-71
2023/07/01 08:15:59;;;;;;;5.50;1.60;;;26.70;99.90;;;;;;5067163;28;20383;-71
2023/07/01 08:18:25;;;;;;;6.45;1.65;;;27.20;99.90;;;;;;5068196;28;20468;-71
2023/07/01 08:20:54;;;;;;;7.50;1.98;;;27.30;99.90;;;;;;5070399;28;20766;-71
2023/07/01 08:23:21;;;;;;;5.60;1.40;;;28.20;99.90;;;;;;5086014;28;20477;-72
2023/07/01 08:25:46;;;;;;;6.18;1.40;;;28.30;99.90;;;;;;5077833;28;20427;-72
2023/07/01 08:28:12;;;;;;;7.60;1.80;;;28.30;99.90;;;;;;5073602;28;20418;-72
2023/07/01 08:30:38;;;;;;;6.50;1.50;;;28.20;99.90;;;;;;5073076;28;20435;-72
2023/07/01 08:33:04;;;;;;;19.05;1.80;;;27.10;99.90;;;;;;5073866;28;20399;-71
2023/07/01 08:35:30;;;;;;;5.85;1.63;;;27.40;99.90;;;;;;5072221;28;20396;-72
2023/07/01 08:37:55;;;;;;;6.78;1.50;;;27.80;99.90;;;;;;5073443;28;20462;-72
2023/07/01 08:40:21;;;;;;;6.07;1.70;;;28.30;99.90;;;;;;5071933;28;20445;-72
2023/07/01 08:42:48;;;;;;;8.80;1.60;;;29.20;99.90;;;;;;5073180;28;20402;-72
2023/07/01 08:45:16;;;;;;;6.63;1.60;;;30.30;99.90;;;;;;5070451;28;20431;-72
2023/07/01 08:47:42;;;;;;;6.10;1.80;;;29.00;99.90;;;;;;5069970;28;20410;-71
2023/07/01 08:50:08;;;;;;;5.95;1.70;;;28.60;99.90;;;;;;5071288;28;20755;-71
2023/07/01 08:52:41;;;;;;;5.80;1.80;;;28.30;99.90;;;;;;5071236;28;20420;-72
2023/07/01 08:55:09;;;;;;;6.10;1.70;;;28.00;99.90;;;;;;5070707;28;20388;-72
2023/07/01 08:57:39;;;;;;;6.40;1.58;;;28.20;99.90;;;;;;5070203;28;20723;-70
2023/07/01 09:00:09;;;;;;;6.20;1.80;;;28.70;99.90;;;;;;5068562;28;20438;-71
2023/07/01 09:02:36;;;;;;;6.20;2.10;;;29.00;99.90;;;;;;5070089;28;20399;-71
2023/07/01 09:05:03;;;;;;;5.73;1.60;;;29.70;99.90;;;;;;5069564;28;20460;-72
2023/07/01 09:07:31;;;;;;;5.60;1.80;;;29.50;99.90;;;;;;5069614;28;20383;-71
2023/07/01 09:09:57;;;;;;;6.60;1.60;;;29.50;99.90;;;;;;5069500;28;20380;-72
2023/07/01 09:12:27;;;;;;;6.30;2.00;;;29.50;99.90;;;;;;5069286;28;20404;-71
2023/07/01 09:15:03;;;;;;;6.00;1.83;;;29.30;99.90;;;;;;5069463;28;20462;-71
2023/07/01 09:17:36;;;;;;;5.80;1.60;;;29.80;99.90;;;;;;5068866;28;20898;-71
2023/07/01 09:20:05;;;;;;;5.85;1.80;;;29.00;99.90;;;;;;5068921;28;20387;-71
2023/07/01 09:22:33;;;;;;;7.95;1.80;;;28.60;99.90;;;;;;5069007;28;20434;-72
2023/07/01 09:24:58;;;;;;;6.07;1.60;;;28.50;99.90;;;;;;5068394;28;20435;-72
2023/07/01 09:27:25;;;;;;;8.98;1.70;;;28.40;99.90;;;;;;5068030;28;20431;-72
2023/07/01 09:29:54;;;;;;;6.50;1.80;;;29.00;99.90;;;;;;5067883;28;20396;-72
2023/07/01 09:32:29;;;;;;;20.53;1.60;;;29.30;99.90;;;;;;5071877;28;20390;-72
2023/07/01 09:34:57;;;;;;;7.03;1.77;;;28.60;99.90;;;;;;5071553;28;20413;-72
2023/07/01 09:37:26;;;;;;;5.95;1.80;;;28.90;99.90;;;;;;5071675;28;20970;-72
2023/07/01 09:39:52;;;;;;;7.00;2.15;;;29.00;99.90;;;;;;5071996;28;20383;-71
2023/07/01 09:42:21;;;;;;;7.00;1.85;;;28.40;99.90;;;;;;5072806;28;20418;-72
2023/07/01 09:45:08;;;;;;;6.47;1.98;;;27.80;99.90;;;;;;5076771;28;20406;-72
2023/07/01 09:47:34;;;;;;;6.40;2.00;;;27.50;99.90;;;;;;5078990;28;20403;-71
2023/07/01 09:50:01;;;;;;;7.20;1.87;;;27.90;99.90;;;;;;5076484;28;20367;-72
2023/07/01 09:52:34;;;;;;;6.80;2.00;;;27.60;99.90;;;;;;5074783;28;20866;-71
2023/07/01 09:55:02;;;;;;;7.60;2.38;;;26.50;99.90;;;;;;5072719;28;20383;-71
2023/07/01 09:57:29;;;;;;;5.70;1.70;;;26.40;99.90;;;;;;5071402;28;20469;-71
2023/07/01 09:59:55;;;;;;;6.03;1.90;;;25.60;99.90;;;;;;5071288;28;20475;-71
2023/07/01 10:02:23;;;;;;;10.13;2.10;;;25.30;99.90;;;;;;5071129;28;20474;-71
2023/07/01 10:04:51;;;;;;;8.57;2.00;;;25.40;99.90;;;;;;5071014;28;20466;-71
2023/07/01 10:07:20;;;;;;;5.93;1.70;;;25.80;99.90;;;;;;5071854;28;20813;-72
2023/07/01 10:09:47;;;;;;;6.60;2.13;;;25.80;99.90;;;;;;5072344;28;20420;-72
2023/07/01 10:12:19;;;;;;;13.30;2.17;;;26.20;99.90;;;;;;5071145;28;20925;-71
2023/07/01 10:14:51;;;;;;;8.10;1.60;;;26.00;99.90;;;;;;5071160;28;20818;-71
2023/07/01 10:17:17;;;;;;;6.80;2.20;;;25.80;99.90;;;;;;5074016;28;20841;-71
2023/07/01 10:19:46;;;;;;;7.23;2.10;;;26.00;99.90;;;;;;5086650;28;20392;-71
2023/07/01 10:22:31;;;;;;;5.95;1.70;;;27.10;99.90;;;;;;5071199;28;20399;-71
2023/07/01 10:25:02;;;;;;;6.68;2.25;;;27.70;99.90;;;;;;5070837;28;20395;-71
2023/07/01 10:27:46;;;;;;;6.80;1.70;;;27.80;99.90;;;;;;5071046;28;20753;-72
2023/07/01 10:30:12;;;;;;;7.25;1.92;;;28.10;99.90;;;;;;5071011;28;20875;-72
2023/07/01 10:32:38;;;;;;;5.93;1.50;;;27.90;99.90;;;;;;5071141;28;20403;-71
2023/07/01 10:35:04;;;;;;;10.25;2.13;;;27.60;99.90;;;;;;5071272;28;20847;-71
2023/07/01 10:37:31;;;;;;;7.00;1.87;;;27.60;99.90;;;;;;5070274;28;20392;-71
2023/07/01 10:40:03;;;;;;;6.80;1.98;;;27.10;99.90;;;;;;5070959;28;20391;-71
2023/07/01 10:42:33;;;;;;;6.78;1.77;;;26.80;99.90;;;;;;5069705;28;20404;-71
2023/07/01 10:45:11;;;;;;;6.00;1.70;;;26.50;99.90;;;;;;5070222;28;20404;-71
2023/07/01 10:47:44;;;;;;;5.90;1.70;;;27.10;99.90;;;;;;5070632;28;20388;-71
2023/07/01 10:50:11;;;;;;;6.63;1.98;;;26.90;99.90;;;;;;5070416;28;20862;-71
2023/07/01 10:52:55;;;;;;;6.00;1.63;;;27.50;99.90;;;;;;5070882;28;20391;-71
2023/07/01 10:55:44;;;;;;;7.30;2.00;;;26.90;99.90;;;;;;5070660;28;20725;-71
2023/07/01 10:58:17;;;;;;;7.30;2.20;;;27.30;99.90;;;;;;5071067;28;20384;-71
2023/07/01 11:00:43;;;;;;;6.53;1.88;;;27.60;99.90;;;;;;5070952;28;20943;-71
2023/07/01 11:03:33;;;;;;;6.63;1.83;;;27.40;99.90;;;;;;5070877;28;21406;-71
2023/07/01 11:06:01;;;;;;;6.75;1.85;;;27.50;99.90;;;;;;5073941;28;20416;-71
2023/07/01 11:08:28;;;;;;;7.72;1.65;;;27.00;99.90;;;;;;5081678;28;20469;-71
2023/07/01 11:10:54;;;;;;;6.65;1.70;;;26.80;99.90;;;;;;5076820;28;20388;-71
2023/07/01 11:13:20;;;;;;;8.40;2.20;;;27.00;99.90;;;;;;5072722;28;20396;-71
2023/07/01 11:16:06;;;;;;;5.70;1.65;;;27.30;99.90;;;;;;5071257;28;20388;-71
2023/07/01 11:18:42;;;;;;;6.88;1.83;;;27.20;99.90;;;;;;5070186;28;20395;-71
2023/07/01 11:21:13;;;;;;;6.25;1.83;;;27.10;99.90;;;;;;5070257;28;20448;-71
2023/07/01 11:23:42;;;;;;;7.50;2.00;;;27.30;99.90;;;;;;5062016;28;20405;-71
2023/07/01 11:26:08;;;;;;;6.55;1.90;;;26.90;99.90;;;;;;5066811;28;20890;-71
2023/07/01 11:28:35;;;;;;;7.22;2.40;;;27.30;99.90;;;;;;5074728;28;20409;-71
2023/07/01 11:31:21;;;;;;;6.80;2.10;;;27.60;99.90;;;;;;5074103;28;20408;-70
2023/07/01 11:33:49;;;;;;;6.30;1.90;;;27.30;99.90;;;;;;5068146;28;20414;-73
2023/07/01 11:36:17;;;;;;;6.95;2.00;;;26.80;99.90;;;;;;5067586;28;20404;-71
2023/07/01 11:38:47;;;;;;;6.50;1.90;;;26.80;99.90;;;;;;5070382;28;20431;-70
2023/07/01 11:41:19;;;;;;;6.53;1.70;;;27.00;99.90;;;;;;5071505;28;20455;-71
2023/07/01 11:43:45;;;;;;;5.90;1.40;;;27.20;99.90;;;;;;5068927;28;20414;-71
2023/07/01 11:46:12;;;;;;;6.30;1.60;;;27.50;99.90;;;;;;5070090;28;20522;-71
2023/07/01 11:48:46;;;;;;;5.90;1.75;;;27.70;99.90;;;;;;5069187;28;20396;-73
2023/07/01 11:51:13;;;;;;;6.07;1.60;;;27.00;99.90;;;;;;5068166;28;20440;-71
2023/07/01 11:53:58;;;;;;;6.72;1.75;;;27.10;99.90;;;;;;5067770;28;20388;-70
2023/07/01 11:56:23;;;;;;;6.30;1.80;;;27.50;99.90;;;;;;5068874;28;20388;-71
2023/07/01 11:58:49;;;;;;;6.17;1.70;;;27.10;99.90;;;;;;5070280;28;20378;-71
2023/07/01 12:01:25;;;;;;;9.30;2.30;;;26.50;99.90;;;;;;5068513;28;20821;-71
2023/07/01 12:03:53;;;;;;;6.38;2.28;;;26.40;99.90;;;;;;5068967;28;20398;-71
2023/07/01 12:06:19;;;;;;;7.57;1.83;;;26.20;99.90;;;;;;5069508;28;20419;-72
2023/07/01 12:09:03;;;;;;;6.07;1.80;;;25.70;99.90;;;;;;5068090;28;20949;-70
2023/07/01 12:11:29;;;;;;;6.65;1.67;;;25.40;99.90;;;;;;5064115;28;20943;-70
2023/07/01 12:13:54;;;;;;;8.45;1.70;;;25.60;99.90;;;;;;5063479;28;20411;-70
2023/07/01 12:16:20;;;;;;;5.63;1.70;;;25.60;99.90;;;;;;5063896;28;20400;-71
2023/07/01 12:18:46;;;;;;;6.18;1.80;;;25.80;99.90;;;;;;5059869;28;20396;-71
2023/07/01 12:21:12;;;;;;;6.27;2.03;;;25.80;99.90;;;;;;5058836;28;20412;-70
2023/07/01 12:23:44;;;;;;;6.00;1.70;;;25.60;99.90;;;;;;5065563;28;20817;-70
2023/07/01 12:26:11;;;;;;;7.47;1.70;;;25.40;99.90;;;;;;5077711;28;20415;-70
2023/07/01 12:28:40;;;;;;;5.77;1.47;;;25.20;99.90;;;;;;5082699;28;20392;-70
2023/07/01 12:31:07;;;;;;;6.10;1.95;;;24.80;99.90;;;;;;5065706;28;20465;-70
2023/07/01 12:33:35;;;;;;;6.15;1.80;;;24.90;99.90;;;;;;5065951;28;20418;-70
2023/07/01 12:36:01;;;;;;;7.38;1.45;;;24.60;99.90;;;;;;5062319;28;20411;-70
2023/07/01 12:38:29;;;;;;;5.50;1.40;;;24.50;99.90;;;;;;5064809;28;20427;-70
2023/07/01 12:40:56;;;;;;;9.80;1.50;;;24.30;99.90;;;;;;5060872;28;20897;-71
2023/07/01 12:43:25;;;;;;;6.07;1.38;;;24.50;99.90;;;;;;5060218;28;20409;-71
2023/07/01 12:45:51;;;;;;;5.05;1.20;;;24.40;99.90;;;;;;5064953;28;20415;-70
2023/07/01 12:48:18;;;;;;;5.72;1.40;;;24.30;99.90;;;;;;5062732;28;20402;-70
2023/07/01 12:50:50;;;;;;;6.40;1.42;;;24.20;99.90;;;;;;5054919;28;20417;-70
2023/07/01 12:53:17;;;;;;;5.50;1.33;;;24.20;99.90;;;;;;5054883;28;20464;-70